createdAt,value
2023-01-17T00:00:24.520Z,23.30
2023-01-17T00:01:24.478Z,25.20
2023-01-17T00:02:24.540Z,26.60
2023-01-17T00:03:24.454Z,26.60
2023-01-17T00:04:24.462Z,25.90
2023-01-17T00:05:24.437Z,26.40
2023-01-17T00:06:24.431Z,26.50
2023-01-17T00:07:24.414Z,26.60
2023-01-17T00:08:24.407Z,27.00
2023-01-17T00:09:24.408Z,26.30
2023-01-17T00:10:24.397Z,26.60
2023-01-17T00:11:24.374Z,26.10
2023-01-17T00:12:24.372Z,22.60
2023-01-17T00:13:24.353Z,22.20
2023-01-17T00:14:24.367Z,19.70
2023-01-17T00:15:24.345Z,17.30
2023-01-17T00:16:24.329Z,17.80
2023-01-17T00:17:24.327Z,18.40
2023-01-17T00:18:24.302Z,18.20
2023-01-17T00:19:24.388Z,18.40
2023-01-17T00:20:24.287Z,19.20
2023-01-17T00:21:24.277Z,19.30
2023-01-17T00:22:24.265Z,18.30
2023-01-17T00:23:24.259Z,19.00
2023-01-17T00:24:24.257Z,17.20
2023-01-17T00:25:24.241Z,18.10
2023-01-17T00:26:24.224Z,18.30
2023-01-17T00:27:24.224Z,19.30
2023-01-17T00:28:24.213Z,16.10
2023-01-17T00:29:24.215Z,16.30
2023-01-17T00:30:24.193Z,17.40
2023-01-17T00:31:24.220Z,17.60
2023-01-17T00:32:24.169Z,17.10
2023-01-17T00:33:24.161Z,18.40
2023-01-17T00:34:24.157Z,16.80
2023-01-17T00:35:24.143Z,17.40
2023-01-17T00:36:24.127Z,15.60
2023-01-17T00:37:24.121Z,15.50
2023-01-17T00:38:24.103Z,16.30
2023-01-17T00:39:24.120Z,16.70
2023-01-17T00:40:24.100Z,16.60
2023-01-17T00:41:24.083Z,17.30
2023-01-17T00:42:24.075Z,16.80
2023-01-17T00:43:24.066Z,16.50
2023-01-17T00:44:24.059Z,17.10
2023-01-17T00:45:24.045Z,16.20
2023-01-17T00:46:24.050Z,14.30
2023-01-17T00:47:24.027Z,14.40
2023-01-17T00:48:24.006Z,14.80
2023-01-17T00:49:24.133Z,14.40
2023-01-17T00:50:23.988Z,13.80
2023-01-17T00:51:23.990Z,14.10
2023-01-17T00:52:23.972Z,14.40
2023-01-17T00:53:23.966Z,13.70
2023-01-17T00:54:23.976Z,13.30
2023-01-17T00:55:23.962Z,12.50
2023-01-17T00:56:23.928Z,12.20
2023-01-17T00:57:23.926Z,11.10
2023-01-17T00:58:23.921Z,11.60
2023-01-17T00:59:23.916Z,11.60
2023-01-17T01:00:23.903Z,11.10
2023-01-17T01:01:24.092Z,11.90
2023-01-17T01:02:23.961Z,12.40
2023-01-17T01:03:23.864Z,11.80
2023-01-17T01:04:23.865Z,12.30
2023-01-17T01:05:23.851Z,12.20
2023-01-17T01:06:23.834Z,12.50
2023-01-17T01:07:23.827Z,12.90
2023-01-17T01:08:23.809Z,14.40
2023-01-17T01:09:23.821Z,14.90
2023-01-17T01:10:23.791Z,13.70
2023-01-17T01:11:23.791Z,13.50
2023-01-17T01:12:23.781Z,13.90
2023-01-17T01:13:23.768Z,14.90
2023-01-17T01:14:23.777Z,13.90
2023-01-17T01:15:23.748Z,13.60
2023-01-17T01:16:23.772Z,14.50
2023-01-17T01:17:23.736Z,14.20
2023-01-17T01:18:23.719Z,15.90
2023-01-17T01:19:23.722Z,14.00
2023-01-17T01:20:23.695Z,15.10
2023-01-17T01:21:23.693Z,15.30
2023-01-17T01:22:23.672Z,13.80
2023-01-17T01:23:23.666Z,13.90
2023-01-17T01:24:23.669Z,13.60
2023-01-17T01:25:23.660Z,15.30
2023-01-17T01:26:23.637Z,15.70
2023-01-17T01:27:23.629Z,14.60
2023-01-17T01:28:23.627Z,16.00
2023-01-17T01:29:23.629Z,15.30
2023-01-17T01:30:23.597Z,14.80
2023-01-17T01:31:23.613Z,14.50
2023-01-17T01:32:23.574Z,16.50
2023-01-17T01:33:23.572Z,16.50
2023-01-17T01:34:23.573Z,16.10
2023-01-17T01:35:23.552Z,15.00
2023-01-17T01:36:23.540Z,16.60
2023-01-17T01:37:23.529Z,16.60
2023-01-17T01:38:23.538Z,15.30
2023-01-17T01:39:23.527Z,16.60
2023-01-17T01:40:23.497Z,17.70
2023-01-17T01:41:23.500Z,16.20
2023-01-17T01:42:23.477Z,17.20
2023-01-17T01:43:23.474Z,16.90
2023-01-17T01:44:23.474Z,16.40
2023-01-17T01:45:23.486Z,16.90
2023-01-17T01:46:23.441Z,17.00
2023-01-17T01:47:23.434Z,16.80
2023-01-17T01:48:23.416Z,16.90
2023-01-17T01:49:23.426Z,17.20
2023-01-17T01:50:23.400Z,16.10
2023-01-17T01:51:23.394Z,17.20
2023-01-17T01:52:23.376Z,17.70
2023-01-17T01:53:23.374Z,16.10
2023-01-17T01:54:23.377Z,17.50
2023-01-17T01:55:23.354Z,16.90
2023-01-17T01:56:23.336Z,16.00
2023-01-17T01:57:23.334Z,17.50
2023-01-17T01:58:23.330Z,17.00
2023-01-17T01:59:23.339Z,16.00
2023-01-17T02:00:23.304Z,17.90
2023-01-17T02:01:23.391Z,16.00
2023-01-17T02:02:23.281Z,15.40
2023-01-17T02:03:23.292Z,17.00
2023-01-17T02:04:23.277Z,17.90
2023-01-17T02:05:23.258Z,16.90
2023-01-17T02:06:23.240Z,18.10
2023-01-17T02:07:23.254Z,17.30
2023-01-17T02:08:23.230Z,16.70
2023-01-17T02:09:23.236Z,19.30
2023-01-17T02:10:23.202Z,17.40
2023-01-17T02:11:23.210Z,18.60
2023-01-17T02:12:23.183Z,17.90
2023-01-17T02:13:23.179Z,18.50
2023-01-17T02:14:23.184Z,19.00
2023-01-17T02:15:23.156Z,17.60
2023-01-17T02:16:23.192Z,19.20
2023-01-17T02:17:23.142Z,20.10
2023-01-17T02:18:23.138Z,20.60
2023-01-17T02:19:23.129Z,19.70
2023-01-17T02:20:23.103Z,20.70
2023-01-17T02:21:23.098Z,20.50
2023-01-17T02:22:23.081Z,21.30
2023-01-17T02:23:23.081Z,21.10
2023-01-17T02:24:23.101Z,20.90
2023-01-17T02:25:23.058Z,18.80
2023-01-17T02:26:23.046Z,21.70
2023-01-17T02:27:23.040Z,21.60
2023-01-17T02:28:23.028Z,23.40
2023-01-17T02:29:23.026Z,22.50
2023-01-17T02:30:23.020Z,21.60
2023-01-17T02:31:23.072Z,21.10
2023-01-17T02:32:22.986Z,18.70
2023-01-17T02:33:22.980Z,21.30
2023-01-17T02:34:22.971Z,20.30
2023-01-17T02:35:22.976Z,23.50
2023-01-17T02:36:22.947Z,23.80
2023-01-17T02:37:22.948Z,22.90
2023-01-17T02:38:22.930Z,25.00
2023-01-17T02:39:22.919Z,25.00
2023-01-17T02:40:22.925Z,23.00
2023-01-17T02:41:22.930Z,21.50
2023-01-17T02:42:22.917Z,23.90
2023-01-17T02:43:22.880Z,24.30
2023-01-17T02:44:22.883Z,24.60
2023-01-17T02:45:22.894Z,24.60
2023-01-17T02:46:22.844Z,24.00
2023-01-17T02:47:22.841Z,25.00
2023-01-17T02:48:22.831Z,24.40
2023-01-17T02:49:22.822Z,20.30
2023-01-17T02:50:22.823Z,22.00
2023-01-17T02:51:22.801Z,20.90
2023-01-17T02:52:22.790Z,22.50
2023-01-17T02:53:22.780Z,22.40
2023-01-17T02:54:22.766Z,21.90
2023-01-17T02:55:22.788Z,20.70
2023-01-17T02:56:22.752Z,21.60
2023-01-17T02:57:22.743Z,22.00
2023-01-17T02:58:22.730Z,21.70
2023-01-17T02:59:22.724Z,20.50
2023-01-17T03:00:22.725Z,19.70
2023-01-17T03:01:22.810Z,18.50
2023-01-17T03:02:22.728Z,18.70
2023-01-17T03:03:22.690Z,18.90
2023-01-17T03:04:22.698Z,19.10
2023-01-17T03:05:22.677Z,18.40
2023-01-17T03:06:22.650Z,17.80
2023-01-17T03:07:22.664Z,18.40
2023-01-17T03:08:22.628Z,19.60
2023-01-17T03:09:22.628Z,18.40
2023-01-17T03:10:22.631Z,19.90
2023-01-17T03:11:22.611Z,18.40
2023-01-17T03:12:22.606Z,17.10
2023-01-17T03:13:22.587Z,13.00
2023-01-17T03:14:22.575Z,14.70
2023-01-17T03:15:22.578Z,13.00
2023-01-17T03:16:22.581Z,13.90
2023-01-17T03:17:22.556Z,12.60
2023-01-17T03:18:22.540Z,12.10
2023-01-17T03:19:22.531Z,12.80
2023-01-17T03:20:22.812Z,12.80
2023-01-17T03:21:22.521Z,13.50
2023-01-17T03:22:22.490Z,12.30
2023-01-17T03:23:22.488Z,12.40
2023-01-17T03:24:22.471Z,12.10
2023-01-17T03:25:22.485Z,12.20
2023-01-17T03:26:22.451Z,11.70
2023-01-17T03:27:22.451Z,11.00
2023-01-17T03:28:22.434Z,11.00
2023-01-17T03:29:22.432Z,11.10
2023-01-17T03:30:22.455Z,11.30
2023-01-17T03:31:22.407Z,11.00
2023-01-17T03:32:22.391Z,12.20
2023-01-17T03:33:22.388Z,11.20
2023-01-17T03:34:22.373Z,12.00
2023-01-17T03:35:22.387Z,11.70
2023-01-17T03:36:22.351Z,12.50
2023-01-17T03:37:22.360Z,11.70
2023-01-17T03:38:22.347Z,12.00
2023-01-17T03:39:22.329Z,11.60
2023-01-17T03:40:22.335Z,10.90
2023-01-17T03:41:22.306Z,11.40
2023-01-17T03:42:22.300Z,10.60
2023-01-17T03:43:22.294Z,11.50
2023-01-17T03:44:22.289Z,11.80
2023-01-17T03:45:22.296Z,11.60
2023-01-17T03:46:22.261Z,11.70
2023-01-17T03:47:22.259Z,11.60
2023-01-17T03:48:22.234Z,11.00
2023-01-17T03:49:22.230Z,11.00
2023-01-17T03:50:22.229Z,10.50
2023-01-17T03:51:22.248Z,9.30
2023-01-17T03:52:22.204Z,9.30
2023-01-17T03:53:22.190Z,8.00
2023-01-17T03:54:22.183Z,8.90
2023-01-17T03:55:22.182Z,7.90
2023-01-17T03:56:22.158Z,8.40
2023-01-17T03:57:22.157Z,8.50
2023-01-17T03:58:22.137Z,8.60
2023-01-17T03:59:22.131Z,7.90
2023-01-17T04:00:22.129Z,6.30
2023-01-17T04:01:22.194Z,7.20
2023-01-17T04:02:22.126Z,5.50
2023-01-17T04:03:22.099Z,6.00
2023-01-17T04:04:22.080Z,5.50
2023-01-17T04:05:22.103Z,5.80
2023-01-17T04:06:22.061Z,5.10
2023-01-17T04:07:22.058Z,4.80
2023-01-17T04:08:22.041Z,4.80
2023-01-17T04:09:22.033Z,4.30
2023-01-17T04:10:22.037Z,4.70
2023-01-17T04:11:22.013Z,4.70
2023-01-17T04:12:22.000Z,3.80
2023-01-17T04:13:21.993Z,3.40
2023-01-17T04:14:21.986Z,3.80
2023-01-17T04:15:21.985Z,3.60
2023-01-17T04:16:28.061Z,4.00
2023-01-17T04:17:21.956Z,4.10
2023-01-17T04:18:24.573Z,3.60
2023-01-17T04:19:21.936Z,3.50
2023-01-17T04:20:21.936Z,3.60
2023-01-17T04:21:21.921Z,4.00
2023-01-17T04:22:21.902Z,4.00
2023-01-17T04:23:21.895Z,3.40
2023-01-17T04:24:21.889Z,3.60
2023-01-17T04:25:21.893Z,3.20
2023-01-17T04:26:21.860Z,2.90
2023-01-17T04:27:21.894Z,3.00
2023-01-17T04:28:21.855Z,2.90
2023-01-17T04:29:21.841Z,3.00
2023-01-17T04:30:21.840Z,2.80
2023-01-17T04:31:21.878Z,2.40
2023-01-17T04:32:21.803Z,2.60
2023-01-17T04:33:21.797Z,2.70
2023-01-17T04:34:21.784Z,2.70
2023-01-17T04:35:21.789Z,2.50
2023-01-17T04:36:21.779Z,2.30
2023-01-17T04:37:21.753Z,2.30
2023-01-17T04:38:21.757Z,2.30
2023-01-17T04:39:21.731Z,2.20
2023-01-17T04:40:21.749Z,2.60
2023-01-17T04:41:21.715Z,2.60
2023-01-17T04:42:21.709Z,2.50
2023-01-17T04:43:21.698Z,2.80
2023-01-17T04:44:21.688Z,3.00
2023-01-17T04:45:21.694Z,2.80
2023-01-17T04:46:21.747Z,2.70
2023-01-17T04:47:21.658Z,3.00
2023-01-17T04:48:21.648Z,3.10
2023-01-17T04:49:21.635Z,2.80
2023-01-17T04:50:21.645Z,3.00
2023-01-17T04:51:21.641Z,3.00
2023-01-17T04:52:21.617Z,3.10
2023-01-17T04:53:21.595Z,3.10
2023-01-17T04:54:21.593Z,3.40
2023-01-17T04:55:21.592Z,3.00
2023-01-17T04:56:21.576Z,2.80
2023-01-17T04:57:21.554Z,2.70
2023-01-17T04:58:21.555Z,3.20
2023-01-17T04:59:21.538Z,2.70
2023-01-17T05:00:23.989Z,2.70
2023-01-17T05:01:21.659Z,2.70
2023-01-17T05:02:21.551Z,2.90
2023-01-17T05:03:21.499Z,2.60
2023-01-17T05:04:21.494Z,2.60
2023-01-17T05:05:21.498Z,2.90
2023-01-17T05:06:21.477Z,3.00
2023-01-17T05:07:21.461Z,3.00
2023-01-17T05:08:21.451Z,3.10
2023-01-17T05:09:21.440Z,2.70
2023-01-17T05:10:21.445Z,3.10
2023-01-17T05:11:21.432Z,2.70
2023-01-17T05:12:21.512Z,2.80
2023-01-17T05:13:21.399Z,2.80
2023-01-17T05:14:21.393Z,2.70
2023-01-17T05:15:21.400Z,2.30
2023-01-17T05:16:21.377Z,2.40
2023-01-17T05:17:21.364Z,2.40
2023-01-17T05:18:21.373Z,2.70
2023-01-17T05:19:21.355Z,3.10
2023-01-17T05:20:21.353Z,2.90
2023-01-17T05:21:21.327Z,2.80
2023-01-17T05:22:21.316Z,2.50
2023-01-17T05:23:21.305Z,2.80
2023-01-17T05:24:21.296Z,3.20
2023-01-17T05:25:21.292Z,2.80
2023-01-17T05:26:21.345Z,2.90
2023-01-17T05:27:21.256Z,2.70
2023-01-17T05:28:21.251Z,2.80
2023-01-17T05:29:21.239Z,2.60
2023-01-17T05:30:21.251Z,3.00
2023-01-17T05:31:21.399Z,2.80
2023-01-17T05:32:21.214Z,2.90
2023-01-17T05:33:21.205Z,3.00
2023-01-17T05:34:21.205Z,3.30
2023-01-17T05:35:21.196Z,3.20
2023-01-17T05:36:21.317Z,3.20
2023-01-17T05:37:21.170Z,3.10
2023-01-17T05:38:21.153Z,3.50
2023-01-17T05:39:21.166Z,2.80
2023-01-17T05:40:21.154Z,3.30
2023-01-17T05:41:21.120Z,3.40
2023-01-17T05:42:21.120Z,3.30
2023-01-17T05:43:22.248Z,3.40
2023-01-17T05:44:21.100Z,3.30
2023-01-17T05:45:21.096Z,3.50
2023-01-17T05:46:21.125Z,3.50
2023-01-17T05:47:21.071Z,3.20
2023-01-17T05:48:21.075Z,3.10
2023-01-17T05:49:21.053Z,3.40
2023-01-17T05:50:21.061Z,3.10
2023-01-17T05:51:21.018Z,3.20
2023-01-17T05:52:21.011Z,3.10
2023-01-17T05:53:21.034Z,3.10
2023-01-17T05:54:20.997Z,3.00
2023-01-17T05:55:20.986Z,2.90
2023-01-17T05:56:21.007Z,2.70
2023-01-17T05:57:20.995Z,2.80
2023-01-17T05:58:20.975Z,2.70
2023-01-17T05:59:35.973Z,2.70
2023-01-17T06:00:20.948Z,2.50
2023-01-17T06:01:20.971Z,2.50
2023-01-17T06:02:20.936Z,2.30
2023-01-17T06:03:20.920Z,2.70
2023-01-17T06:04:20.931Z,2.40
2023-01-17T06:05:20.888Z,2.50
2023-01-17T06:06:20.888Z,2.70
2023-01-17T06:07:20.859Z,2.80
2023-01-17T06:08:20.853Z,2.50
2023-01-17T06:09:20.846Z,2.70
2023-01-17T06:10:20.843Z,3.00
2023-01-17T06:11:20.840Z,2.70
2023-01-17T06:12:22.101Z,3.00
2023-01-17T06:13:20.802Z,3.20
2023-01-17T06:14:20.796Z,3.00
2023-01-17T06:15:20.784Z,2.90
2023-01-17T06:16:20.848Z,3.00
2023-01-17T06:17:20.760Z,3.30
2023-01-17T06:18:20.756Z,3.30
2023-01-17T06:19:20.742Z,3.20
2023-01-17T06:20:20.744Z,3.10
2023-01-17T06:21:20.737Z,3.30
2023-01-17T06:22:20.721Z,3.50
2023-01-17T06:23:20.704Z,3.40
2023-01-17T06:24:20.700Z,4.00
2023-01-17T06:25:20.693Z,3.70
2023-01-17T06:26:20.692Z,4.10
2023-01-17T06:27:20.667Z,4.10
2023-01-17T06:28:20.658Z,3.90
2023-01-17T06:29:20.645Z,4.10
2023-01-17T06:30:20.640Z,3.90
2023-01-17T06:31:20.673Z,3.20
2023-01-17T06:32:20.621Z,3.50
2023-01-17T06:33:20.616Z,2.30
2023-01-17T06:34:20.602Z,2.70
2023-01-17T06:35:20.586Z,3.00
2023-01-17T06:36:20.609Z,2.60
2023-01-17T06:37:20.572Z,2.10
2023-01-17T06:38:20.574Z,2.40
2023-01-17T06:39:20.547Z,2.90
2023-01-17T06:40:20.544Z,2.50
2023-01-17T06:41:20.487Z,2.60
2023-01-17T06:42:20.520Z,2.50
2023-01-17T06:43:20.508Z,2.70
2023-01-17T06:44:20.458Z,2.80
2023-01-17T06:45:20.436Z,2.90
2023-01-17T06:46:20.474Z,2.60
2023-01-17T06:47:20.470Z,3.60
2023-01-17T06:48:20.424Z,3.10
2023-01-17T06:49:20.395Z,3.50
2023-01-17T06:50:20.386Z,3.80
2023-01-17T06:51:20.392Z,4.00
2023-01-17T06:52:20.369Z,4.50
2023-01-17T06:53:20.354Z,4.30
2023-01-17T06:54:20.355Z,5.00
2023-01-17T06:55:20.335Z,5.40
2023-01-17T06:56:20.343Z,5.70
2023-01-17T06:57:20.321Z,6.10
2023-01-17T06:58:20.305Z,5.50
2023-01-17T06:59:20.294Z,6.10
2023-01-17T07:00:20.299Z,6.30
2023-01-17T07:01:20.421Z,6.60
2023-01-17T07:02:20.267Z,6.50
2023-01-17T07:03:20.254Z,6.20
2023-01-17T07:04:20.253Z,6.90
2023-01-17T07:05:20.235Z,7.30
2023-01-17T07:06:20.269Z,7.00
2023-01-17T07:07:20.216Z,6.90
2023-01-17T07:08:20.214Z,6.90
2023-01-17T07:09:20.214Z,7.10
2023-01-17T07:10:20.187Z,7.10
2023-01-17T07:11:20.189Z,6.90
2023-01-17T07:12:20.173Z,7.00
2023-01-17T07:13:20.164Z,7.10
2023-01-17T07:14:20.152Z,7.70
2023-01-17T07:15:20.140Z,7.80
2023-01-17T07:16:20.195Z,7.80
2023-01-17T07:17:20.116Z,7.30
2023-01-17T07:18:20.113Z,7.60
2023-01-17T07:19:20.102Z,7.20
2023-01-17T07:20:20.109Z,7.50
2023-01-17T07:21:20.095Z,7.30
2023-01-17T07:22:20.074Z,7.30
2023-01-17T07:23:20.059Z,6.90
2023-01-17T07:24:20.052Z,7.50
2023-01-17T07:25:20.056Z,7.60
2023-01-17T07:26:20.048Z,7.70
2023-01-17T07:27:20.032Z,8.10
2023-01-17T07:28:20.015Z,8.60
2023-01-17T07:29:19.999Z,8.40
2023-01-17T07:30:20.001Z,7.80
2023-01-17T07:31:20.033Z,8.50
2023-01-17T07:32:19.977Z,8.60
2023-01-17T07:33:19.959Z,8.30
2023-01-17T07:34:19.951Z,8.50
2023-01-17T07:35:19.949Z,8.70
2023-01-17T07:36:19.952Z,9.10
2023-01-17T07:37:19.975Z,8.60
2023-01-17T07:38:19.920Z,9.10
2023-01-17T07:39:19.905Z,8.20
2023-01-17T07:40:19.928Z,8.50
2023-01-17T07:41:19.911Z,7.60
2023-01-17T07:42:19.897Z,7.80
2023-01-17T07:43:19.861Z,7.90
2023-01-17T07:44:19.853Z,7.80
2023-01-17T07:45:19.849Z,8.00
2023-01-17T07:46:19.895Z,8.30
2023-01-17T07:47:19.821Z,8.10
2023-01-17T07:48:19.825Z,8.40
2023-01-17T07:49:19.811Z,8.50
2023-01-17T07:50:19.796Z,9.10
2023-01-17T07:51:19.791Z,9.20
2023-01-17T07:52:19.778Z,9.00
2023-01-17T07:53:19.763Z,9.90
2023-01-17T07:54:19.754Z,9.90
2023-01-17T07:55:19.741Z,9.30
2023-01-17T07:56:19.756Z,9.50
2023-01-17T07:57:19.736Z,9.80
2023-01-17T07:58:19.720Z,9.40
2023-01-17T07:59:19.721Z,9.80
2023-01-17T08:00:19.708Z,9.70
2023-01-17T08:01:19.817Z,10.10
2023-01-17T08:02:19.691Z,11.00
2023-01-17T08:03:19.703Z,11.30
2023-01-17T08:04:19.682Z,11.00
2023-01-17T08:05:19.673Z,11.00
2023-01-17T08:06:19.677Z,11.90
2023-01-17T08:07:19.630Z,10.80
2023-01-17T08:08:19.641Z,12.00
2023-01-17T08:09:19.612Z,11.90
2023-01-17T08:10:19.621Z,11.90
2023-01-17T08:11:19.616Z,12.40
2023-01-17T08:12:19.591Z,12.40
2023-01-17T08:13:19.573Z,12.50
2023-01-17T08:14:19.565Z,13.00
2023-01-17T08:15:19.552Z,12.90
2023-01-17T08:16:19.596Z,14.00
2023-01-17T08:17:19.535Z,13.60
2023-01-17T08:18:19.527Z,14.10
2023-01-17T08:19:19.509Z,13.60
2023-01-17T08:20:19.505Z,13.70
2023-01-17T08:21:19.518Z,14.30
2023-01-17T08:22:19.487Z,13.90
2023-01-17T08:23:19.472Z,14.60
2023-01-17T08:24:19.477Z,14.50
2023-01-17T08:25:19.456Z,15.50
2023-01-17T08:26:19.489Z,16.20
2023-01-17T08:27:19.454Z,15.50
2023-01-17T08:28:19.426Z,14.90
2023-01-17T08:29:19.403Z,16.00
2023-01-17T08:30:19.403Z,16.50
2023-01-17T08:31:19.402Z,15.30
2023-01-17T08:32:19.404Z,16.20
2023-01-17T08:33:19.362Z,15.20
2023-01-17T08:34:19.356Z,16.50
2023-01-17T08:35:19.341Z,16.10
2023-01-17T08:36:19.344Z,15.80
2023-01-17T08:37:19.337Z,16.60
2023-01-17T08:38:19.316Z,16.80
2023-01-17T08:39:19.306Z,16.00
2023-01-17T08:40:19.300Z,15.40
2023-01-17T08:41:19.281Z,15.60
2023-01-17T08:42:19.293Z,16.10
2023-01-17T08:43:19.262Z,14.90
2023-01-17T08:44:19.261Z,15.20
2023-01-17T08:45:19.243Z,15.10
2023-01-17T08:46:19.264Z,15.70
2023-01-17T08:47:19.258Z,14.50
2023-01-17T08:48:19.236Z,12.70
2023-01-17T08:49:19.222Z,13.50
2023-01-17T08:50:19.200Z,13.10
2023-01-17T08:51:19.196Z,12.80
2023-01-17T08:52:19.196Z,11.70
2023-01-17T08:53:19.183Z,10.90
2023-01-17T08:54:19.169Z,11.10
2023-01-17T08:55:19.167Z,11.20
2023-01-17T08:56:19.149Z,10.30
2023-01-17T08:57:19.150Z,9.80
2023-01-17T08:58:19.118Z,10.30
2023-01-17T08:59:19.129Z,9.80
2023-01-17T09:00:19.113Z,10.50
2023-01-17T09:01:19.193Z,10.20
2023-01-17T09:02:19.123Z,10.20
2023-01-17T09:03:19.871Z,10.90
2023-01-17T09:04:19.115Z,11.70
2023-01-17T09:05:19.066Z,11.80
2023-01-17T09:06:19.051Z,12.00
2023-01-17T09:07:19.057Z,12.30
2023-01-17T09:08:19.025Z,11.90
2023-01-17T09:09:19.035Z,10.70
2023-01-17T09:10:19.054Z,11.00
2023-01-17T09:11:19.010Z,10.80
2023-01-17T09:12:19.020Z,10.40
2023-01-17T09:13:18.987Z,10.40
2023-01-17T09:14:18.978Z,10.30
2023-01-17T09:15:18.957Z,10.70
2023-01-17T09:16:19.002Z,10.40
2023-01-17T09:17:18.968Z,10.40
2023-01-17T09:18:18.933Z,10.10
2023-01-17T09:19:18.936Z,10.90
2023-01-17T09:20:18.905Z,10.80
2023-01-17T09:21:18.898Z,11.00
2023-01-17T09:22:18.906Z,11.80
2023-01-17T09:23:18.873Z,12.20
2023-01-17T09:24:18.866Z,13.00
2023-01-17T09:25:18.886Z,13.40
2023-01-17T09:26:18.845Z,13.20
2023-01-17T09:27:18.862Z,12.50
2023-01-17T09:28:18.828Z,12.50
2023-01-17T09:29:18.836Z,11.80
2023-01-17T09:30:18.813Z,11.60
2023-01-17T09:31:18.817Z,12.00
2023-01-17T09:32:18.806Z,11.30
2023-01-17T09:33:18.789Z,11.80
2023-01-17T09:34:18.777Z,12.60
2023-01-17T09:35:18.771Z,12.30
2023-01-17T09:36:18.758Z,12.70
2023-01-17T09:37:18.774Z,13.40
2023-01-17T09:38:18.733Z,13.10
2023-01-17T09:39:18.717Z,13.40
2023-01-17T09:40:18.703Z,14.80
2023-01-17T09:41:18.690Z,14.40
2023-01-17T09:42:18.695Z,14.10
2023-01-17T09:43:18.673Z,13.70
2023-01-17T09:44:18.662Z,14.20
2023-01-17T09:45:19.450Z,14.50
2023-01-17T09:46:18.651Z,14.30
2023-01-17T09:47:18.746Z,15.30
2023-01-17T09:48:18.629Z,16.00
2023-01-17T09:49:18.624Z,15.80
2023-01-17T09:50:18.613Z,13.30
2023-01-17T09:51:18.600Z,13.90
2023-01-17T09:52:18.608Z,13.00
2023-01-17T09:53:18.571Z,13.40
2023-01-17T09:54:18.574Z,13.60
2023-01-17T09:55:18.567Z,13.60
2023-01-17T09:56:18.551Z,12.20
2023-01-17T09:57:18.574Z,11.50
2023-01-17T09:58:18.534Z,11.20
2023-01-17T09:59:19.085Z,11.60
2023-01-17T10:00:18.508Z,11.50
2023-01-17T10:01:18.766Z,11.00
2023-01-17T10:02:18.825Z,11.30
2023-01-17T10:03:18.678Z,10.80
2023-01-17T10:04:18.615Z,11.20
2023-01-17T10:05:18.456Z,11.00
2023-01-17T10:06:18.453Z,11.30
2023-01-17T10:07:18.477Z,11.10
2023-01-17T10:08:18.425Z,12.00
2023-01-17T10:09:18.436Z,13.10
2023-01-17T10:10:18.408Z,12.70
2023-01-17T10:11:18.404Z,12.80
2023-01-17T10:12:18.404Z,11.80
2023-01-17T10:13:18.378Z,10.90
2023-01-17T10:14:18.367Z,10.20
2023-01-17T10:15:18.359Z,10.00
2023-01-17T10:16:18.418Z,11.20
2023-01-17T10:17:18.355Z,10.00
2023-01-17T10:18:29.182Z,10.90
2023-01-17T10:19:18.334Z,11.50
2023-01-17T10:20:18.291Z,11.20
2023-01-17T10:21:18.284Z,11.40
2023-01-17T10:22:18.290Z,11.60
2023-01-17T10:23:18.274Z,11.50
2023-01-17T10:24:24.268Z,11.70
2023-01-17T10:25:18.248Z,12.00
2023-01-17T10:26:18.232Z,11.90
2023-01-17T10:27:18.241Z,11.80
2023-01-17T10:28:18.222Z,12.20
2023-01-17T10:29:20.166Z,12.90
2023-01-17T10:30:18.197Z,13.10
2023-01-17T10:31:18.191Z,14.10
2023-01-17T10:32:18.184Z,14.30
2023-01-17T10:33:18.184Z,14.80
2023-01-17T10:34:18.154Z,16.10
2023-01-17T10:35:18.150Z,16.90
2023-01-17T10:36:18.144Z,18.20
2023-01-17T10:37:18.134Z,17.00
2023-01-17T10:38:18.113Z,17.70
2023-01-17T10:39:18.106Z,18.50
2023-01-17T10:40:18.091Z,18.30
2023-01-17T10:41:18.088Z,18.10
2023-01-17T10:42:18.087Z,18.60
2023-01-17T10:43:18.070Z,20.70
2023-01-17T10:44:18.052Z,18.40
2023-01-17T10:45:18.071Z,18.50
2023-01-17T10:46:18.205Z,20.10
2023-01-17T10:47:18.060Z,18.90
2023-01-17T10:48:18.012Z,20.00
2023-01-17T10:49:18.026Z,17.10
2023-01-17T10:50:17.993Z,14.70
2023-01-17T10:51:18.007Z,12.90
2023-01-17T10:52:17.983Z,11.40
2023-01-17T10:53:17.966Z,10.70
2023-01-17T10:54:17.956Z,11.40
2023-01-17T10:55:17.945Z,11.50
2023-01-17T10:56:17.930Z,10.30
2023-01-17T10:57:17.945Z,10.30
2023-01-17T10:58:17.915Z,10.60
2023-01-17T10:59:17.920Z,10.80
2023-01-17T11:00:17.983Z,10.40
2023-01-17T11:01:18.008Z,12.10
2023-01-17T11:02:17.976Z,11.40
2023-01-17T11:03:17.877Z,11.40
2023-01-17T11:04:17.872Z,12.20
2023-01-17T11:05:17.853Z,13.10
2023-01-17T11:06:17.830Z,13.10
2023-01-17T11:07:17.855Z,13.30
2023-01-17T11:08:17.806Z,13.40
2023-01-17T11:09:17.814Z,13.10
2023-01-17T11:10:17.846Z,13.00
2023-01-17T11:11:17.782Z,12.90
2023-01-17T11:12:17.786Z,13.60
2023-01-17T11:13:17.763Z,13.40
2023-01-17T11:14:17.756Z,13.50
2023-01-17T11:15:17.794Z,13.10
2023-01-17T11:16:17.724Z,13.70
2023-01-17T11:17:17.736Z,14.30
2023-01-17T11:18:17.717Z,14.70
2023-01-17T11:19:17.715Z,13.80
2023-01-17T11:20:17.743Z,13.90
2023-01-17T11:21:17.690Z,14.80
2023-01-17T11:22:17.684Z,14.80
2023-01-17T11:23:17.664Z,14.60
2023-01-17T11:24:17.669Z,14.90
2023-01-17T11:25:17.641Z,16.30
2023-01-17T11:26:17.630Z,14.70
2023-01-17T11:27:17.635Z,15.00
2023-01-17T11:28:17.610Z,15.80
2023-01-17T11:29:17.619Z,15.10
2023-01-17T11:30:17.685Z,15.40
2023-01-17T11:31:17.629Z,15.50
2023-01-17T11:32:17.579Z,14.80
2023-01-17T11:33:17.578Z,14.80
2023-01-17T11:34:17.552Z,15.90
2023-01-17T11:35:17.560Z,16.10
2023-01-17T11:36:17.532Z,14.90
2023-01-17T11:37:17.525Z,15.60
2023-01-17T11:38:17.523Z,14.90
2023-01-17T11:39:17.505Z,16.50
2023-01-17T11:40:17.490Z,14.20
2023-01-17T11:41:17.483Z,12.60
2023-01-17T11:42:17.471Z,12.00
2023-01-17T11:43:17.491Z,11.70
2023-01-17T11:44:17.451Z,11.70
2023-01-17T11:45:17.454Z,11.90
2023-01-17T11:46:17.455Z,11.80
2023-01-17T11:47:17.433Z,14.30
2023-01-17T11:48:17.430Z,12.70
2023-01-17T11:49:17.402Z,11.60
2023-01-17T11:50:17.452Z,11.30
2023-01-17T11:51:17.387Z,10.00
2023-01-17T11:52:17.368Z,9.40
2023-01-17T11:53:17.380Z,9.20
2023-01-17T11:54:17.355Z,9.10
2023-01-17T11:55:17.344Z,9.30
2023-01-17T11:56:17.330Z,10.40
2023-01-17T11:57:17.337Z,9.50
2023-01-17T11:58:17.320Z,9.80
2023-01-17T11:59:17.300Z,9.00
2023-01-17T12:00:17.289Z,9.20
2023-01-17T12:01:17.331Z,9.60
2023-01-17T12:02:17.281Z,8.40
2023-01-17T12:03:17.282Z,8.50
2023-01-17T12:04:17.246Z,8.70
2023-01-17T12:05:17.303Z,8.20
2023-01-17T12:06:17.230Z,8.60
2023-01-17T12:07:17.220Z,8.00
2023-01-17T12:08:17.230Z,7.70
2023-01-17T12:09:17.199Z,7.70
2023-01-17T12:10:17.185Z,8.60
2023-01-17T12:11:17.188Z,8.40
2023-01-17T12:12:17.163Z,8.00
2023-01-17T12:13:17.173Z,8.60
2023-01-17T12:14:17.174Z,8.20
2023-01-17T12:15:17.159Z,8.10
2023-01-17T12:16:17.181Z,8.10
2023-01-17T12:17:17.116Z,7.80
2023-01-17T12:18:17.125Z,7.60
2023-01-17T12:19:17.099Z,7.60
2023-01-17T12:20:17.084Z,7.40
2023-01-17T12:21:17.083Z,7.80
2023-01-17T12:22:17.072Z,7.30
2023-01-17T12:23:17.069Z,7.10
2023-01-17T12:24:17.051Z,7.70
2023-01-17T12:25:17.039Z,7.50
2023-01-17T12:26:17.054Z,7.80
2023-01-17T12:27:17.019Z,7.90
2023-01-17T12:28:17.019Z,8.10
2023-01-17T12:29:16.996Z,7.90
2023-01-17T12:30:16.980Z,7.80
2023-01-17T12:31:17.006Z,8.90
2023-01-17T12:32:16.974Z,9.00
2023-01-17T12:33:16.966Z,8.30
2023-01-17T12:34:16.945Z,8.40
2023-01-17T12:35:16.944Z,8.90
2023-01-17T12:36:16.921Z,9.00
2023-01-17T12:37:16.911Z,9.20
2023-01-17T12:38:31.213Z,9.20
2023-01-17T12:39:16.905Z,9.20
2023-01-17T12:40:16.898Z,9.20
2023-01-17T12:41:16.880Z,9.10
2023-01-17T12:42:16.872Z,9.00
2023-01-17T12:43:16.869Z,9.00
2023-01-17T12:44:16.842Z,8.20
2023-01-17T12:45:16.833Z,8.10
2023-01-17T12:46:16.847Z,8.40
2023-01-17T12:47:16.815Z,8.50
2023-01-17T12:48:16.817Z,7.70
2023-01-17T12:49:16.792Z,8.20
2023-01-17T12:50:16.782Z,8.10
2023-01-17T12:51:16.777Z,8.00
2023-01-17T12:52:16.758Z,8.40
2023-01-17T12:53:16.772Z,8.00
2023-01-17T12:54:16.742Z,7.50
2023-01-17T12:55:16.732Z,8.00
2023-01-17T12:56:16.720Z,8.40
2023-01-17T12:57:16.717Z,8.20
2023-01-17T12:58:16.714Z,8.00
2023-01-17T12:59:16.697Z,7.90
2023-01-17T13:00:16.690Z,8.10
2023-01-17T13:01:16.831Z,8.30
2023-01-17T13:02:16.708Z,8.00
2023-01-17T13:03:16.669Z,8.30